sensor_id;sensor_type;location;lat;lon;timestamp;P1;durP1;ratioP1;P2;durP2;ratioP2
70433;SDS011;57876;47.792;12.960;2024-03-02T00:01:29;4.13;;;1.00;;
70433;SDS011;57876;47.792;12.960;2024-03-02T00:03:53;4.50;;;1.30;;
70433;SDS011;57876;47.792;12.960;2024-03-02T00:06:19;4.50;;;1.30;;
70433;SDS011;57876;47.792;12.960;2024-03-02T00:08:44;4.28;;;1.20;;
70433;SDS011;57876;47.792;12.960;2024-03-02T00:11:09;4.50;;;1.30;;
70433;SDS011;57876;47.792;12.960;2024-03-02T00:13:35;4.38;;;1.27;;
70433;SDS011;57876;47.792;12.960;2024-03-02T00:16:01;4.35;;;1.13;;
70433;SDS011;57876;47.792;12.960;2024-03-02T00:20:54;4.47;;;1.20;;
70433;SDS011;57876;47.792;12.960;2024-03-02T00:23:20;4.30;;;1.27;;
70433;SDS011;57876;47.792;12.960;2024-03-02T00:28:14;4.65;;;1.40;;
70433;SDS011;57876;47.792;12.960;2024-03-02T00:33:26;4.57;;;1.30;;
70433;SDS011;57876;47.792;12.960;2024-03-02T00:35:54;4.43;;;1.13;;
70433;SDS011;57876;47.792;12.960;2024-03-02T00:38:18;4.20;;;1.20;;
70433;SDS011;57876;47.792;12.960;2024-03-02T00:40:43;4.60;;;1.30;;
70433;SDS011;57876;47.792;12.960;2024-03-02T00:46:02;4.45;;;1.30;;
70433;SDS011;57876;47.792;12.960;2024-03-02T00:48:26;4.70;;;1.30;;
70433;SDS011;57876;47.792;12.960;2024-03-02T00:50:52;4.60;;;1.08;;
70433;SDS011;57876;47.792;12.960;2024-03-02T00:53:16;4.17;;;1.00;;
70433;SDS011;57876;47.792;12.960;2024-03-02T00:55:47;4.10;;;1.00;;
70433;SDS011;57876;47.792;12.960;2024-03-02T00:58:12;4.95;;;1.23;;
70433;SDS011;57876;47.792;12.960;2024-03-02T01:00:37;4.27;;;1.20;;
70433;SDS011;57876;47.792;12.960;2024-03-02T01:03:01;4.30;;;1.20;;
70433;SDS011;57876;47.792;12.960;2024-03-02T01:05:25;4.10;;;1.00;;
70433;SDS011;57876;47.792;12.960;2024-03-02T01:07:50;4.67;;;1.30;;
70433;SDS011;57876;47.792;12.960;2024-03-02T01:10:14;4.50;;;1.30;;
70433;SDS011;57876;47.792;12.960;2024-03-02T01:12:38;4.20;;;1.20;;
70433;SDS011;57876;47.792;12.960;2024-03-02T01:15:03;4.57;;;1.27;;
70433;SDS011;57876;47.792;12.960;2024-03-02T01:17:30;4.32;;;1.20;;
70433;SDS011;57876;47.792;12.960;2024-03-02T01:19:54;4.50;;;1.20;;
70433;SDS011;57876;47.792;12.960;2024-03-02T01:22:18;4.47;;;1.30;;
70433;SDS011;57876;47.792;12.960;2024-03-02T01:24:49;4.43;;;1.10;;
70433;SDS011;57876;47.792;12.960;2024-03-02T01:27:13;4.15;;;1.20;;
70433;SDS011;57876;47.792;12.960;2024-03-02T01:29:37;4.13;;;1.10;;
70433;SDS011;57876;47.792;12.960;2024-03-02T01:32:02;4.50;;;1.33;;
70433;SDS011;57876;47.792;12.960;2024-03-02T01:34:27;4.38;;;1.10;;
70433;SDS011;57876;47.792;12.960;2024-03-02T01:36:51;4.27;;;1.20;;
70433;SDS011;57876;47.792;12.960;2024-03-02T01:39:15;4.47;;;1.20;;
70433;SDS011;57876;47.792;12.960;2024-03-02T01:41:40;4.40;;;1.13;;
70433;SDS011;57876;47.792;12.960;2024-03-02T01:44:04;4.30;;;1.10;;
70433;SDS011;57876;47.792;12.960;2024-03-02T01:46:28;4.30;;;1.20;;
70433;SDS011;57876;47.792;12.960;2024-03-02T01:48:53;4.18;;;1.02;;
70433;SDS011;57876;47.792;12.960;2024-03-02T01:51:17;4.10;;;1.00;;
70433;SDS011;57876;47.792;12.960;2024-03-02T01:53:42;4.07;;;1.17;;
70433;SDS011;57876;47.792;12.960;2024-03-02T01:56:06;3.92;;;1.10;;
70433;SDS011;57876;47.792;12.960;2024-03-02T01:58:31;4.10;;;1.10;;
70433;SDS011;57876;47.792;12.960;2024-03-02T02:00:55;4.20;;;1.00;;
70433;SDS011;57876;47.792;12.960;2024-03-02T02:03:19;4.33;;;1.30;;
70433;SDS011;57876;47.792;12.960;2024-03-02T02:05:44;4.20;;;1.03;;
70433;SDS011;57876;47.792;12.960;2024-03-02T02:08:09;4.47;;;1.20;;
70433;SDS011;57876;47.792;12.960;2024-03-02T02:10:34;4.13;;;1.20;;
70433;SDS011;57876;47.792;12.960;2024-03-02T02:12:58;3.90;;;1.10;;
70433;SDS011;57876;47.792;12.960;2024-03-02T02:15:27;3.90;;;0.90;;
70433;SDS011;57876;47.792;12.960;2024-03-02T02:17:53;4.10;;;1.10;;
70433;SDS011;57876;47.792;12.960;2024-03-02T02:20:18;4.00;;;1.00;;
70433;SDS011;57876;47.792;12.960;2024-03-02T02:22:59;4.53;;;1.30;;
70433;SDS011;57876;47.792;12.960;2024-03-02T02:25:24;4.32;;;1.02;;
70433;SDS011;57876;47.792;12.960;2024-03-02T02:27:49;3.83;;;0.80;;
70433;SDS011;57876;47.792;12.960;2024-03-02T02:30:17;4.07;;;1.10;;
70433;SDS011;57876;47.792;12.960;2024-03-02T02:32:43;4.00;;;1.00;;
70433;SDS011;57876;47.792;12.960;2024-03-02T02:35:07;4.47;;;1.20;;
70433;SDS011;57876;47.792;12.960;2024-03-02T02:37:32;4.20;;;1.10;;
70433;SDS011;57876;47.792;12.960;2024-03-02T02:39:57;3.93;;;1.00;;
70433;SDS011;57876;47.792;12.960;2024-03-02T02:42:21;4.10;;;1.00;;
70433;SDS011;57876;47.792;12.960;2024-03-02T02:44:45;4.10;;;1.00;;
70433;SDS011;57876;47.792;12.960;2024-03-02T02:47:10;3.70;;;0.93;;
70433;SDS011;57876;47.792;12.960;2024-03-02T02:49:34;3.80;;;0.80;;
70433;SDS011;57876;47.792;12.960;2024-03-02T02:51:59;4.07;;;1.00;;
70433;SDS011;57876;47.792;12.960;2024-03-02T02:54:23;4.23;;;1.07;;
70433;SDS011;57876;47.792;12.960;2024-03-02T02:56:47;4.10;;;1.13;;
70433;SDS011;57876;47.792;12.960;2024-03-02T02:59:12;4.00;;;0.98;;
70433;SDS011;57876;47.792;12.960;2024-03-02T03:01:36;4.10;;;0.90;;
70433;SDS011;57876;47.792;12.960;2024-03-02T03:04:01;4.20;;;1.10;;
70433;SDS011;57876;47.792;12.960;2024-03-02T03:06:25;4.18;;;0.98;;
70433;SDS011;57876;47.792;12.960;2024-03-02T03:08:49;3.80;;;0.90;;
70433;SDS011;57876;47.792;12.960;2024-03-02T03:11:14;3.90;;;0.90;;
70433;SDS011;57876;47.792;12.960;2024-03-02T03:13:38;3.97;;;0.90;;
70433;SDS011;57876;47.792;12.960;2024-03-02T03:16:03;3.83;;;1.10;;
70433;SDS011;57876;47.792;12.960;2024-03-02T03:18:27;3.80;;;0.90;;
70433;SDS011;57876;47.792;12.960;2024-03-02T03:20:52;3.77;;;0.80;;
70433;SDS011;57876;47.792;12.960;2024-03-02T03:23:16;3.73;;;0.90;;
70433;SDS011;57876;47.792;12.960;2024-03-02T03:25:41;3.58;;;0.70;;
70433;SDS011;57876;47.792;12.960;2024-03-02T03:28:07;4.30;;;1.05;;
70433;SDS011;57876;47.792;12.960;2024-03-02T03:30:33;4.03;;;0.90;;
70433;SDS011;57876;47.792;12.960;2024-03-02T03:32:58;3.83;;;0.90;;
70433;SDS011;57876;47.792;12.960;2024-03-02T03:35:22;4.40;;;1.20;;
70433;SDS011;57876;47.792;12.960;2024-03-02T03:37:46;4.27;;;1.00;;
70433;SDS011;57876;47.792;12.960;2024-03-02T03:40:11;3.73;;;1.00;;
70433;SDS011;57876;47.792;12.960;2024-03-02T03:42:36;4.20;;;1.20;;
70433;SDS011;57876;47.792;12.960;2024-03-02T03:45:00;4.05;;;1.00;;
70433;SDS011;57876;47.792;12.960;2024-03-02T03:47:28;3.90;;;0.90;;
70433;SDS011;57876;47.792;12.960;2024-03-02T03:49:52;3.97;;;1.00;;
70433;SDS011;57876;47.792;12.960;2024-03-02T03:52:17;3.80;;;0.83;;
70433;SDS011;57876;47.792;12.960;2024-03-02T03:54:41;3.70;;;0.83;;
70433;SDS011;57876;47.792;12.960;2024-03-02T03:57:07;3.80;;;0.80;;
70433;SDS011;57876;47.792;12.960;2024-03-02T03:59:31;4.60;;;1.00;;
70433;SDS011;57876;47.792;12.960;2024-03-02T04:01:55;4.00;;;0.90;;
70433;SDS011;57876;47.792;12.960;2024-03-02T04:04:20;3.90;;;0.90;;
70433;SDS011;57876;47.792;12.960;2024-03-02T04:06:44;3.50;;;0.80;;
70433;SDS011;57876;47.792;12.960;2024-03-02T04:09:09;3.70;;;0.80;;
70433;SDS011;57876;47.792;12.960;2024-03-02T04:11:33;3.70;;;1.00;;
70433;SDS011;57876;47.792;12.960;2024-03-02T04:13:57;3.73;;;1.00;;
70433;SDS011;57876;47.792;12.960;2024-03-02T04:16:22;3.43;;;0.73;;
70433;SDS011;57876;47.792;12.960;2024-03-02T04:18:46;4.07;;;1.00;;
70433;SDS011;57876;47.792;12.960;2024-03-02T04:21:11;3.90;;;0.80;;
70433;SDS011;57876;47.792;12.960;2024-03-02T04:23:35;3.60;;;0.90;;
70433;SDS011;57876;47.792;12.960;2024-03-02T04:26:00;3.70;;;0.80;;
70433;SDS011;57876;47.792;12.960;2024-03-02T04:28:24;3.70;;;0.90;;
70433;SDS011;57876;47.792;12.960;2024-03-02T04:30:49;3.50;;;0.80;;
70433;SDS011;57876;47.792;12.960;2024-03-02T04:33:13;3.83;;;0.80;;
70433;SDS011;57876;47.792;12.960;2024-03-02T04:35:37;3.90;;;1.00;;
70433;SDS011;57876;47.792;12.960;2024-03-02T04:38:02;3.33;;;0.70;;
70433;SDS011;57876;47.792;12.960;2024-03-02T04:40:26;3.90;;;0.90;;
70433;SDS011;57876;47.792;12.960;2024-03-02T04:42:50;3.83;;;0.83;;
70433;SDS011;57876;47.792;12.960;2024-03-02T04:45:15;3.30;;;0.77;;
70433;SDS011;57876;47.792;12.960;2024-03-02T04:47:40;3.60;;;0.80;;
70433;SDS011;57876;47.792;12.960;2024-03-02T04:50:05;3.93;;;0.87;;
70433;SDS011;57876;47.792;12.960;2024-03-02T04:52:31;3.28;;;0.70;;
70433;SDS011;57876;47.792;12.960;2024-03-02T04:54:56;4.00;;;0.97;;
70433;SDS011;57876;47.792;12.960;2024-03-02T04:57:39;3.70;;;0.82;;
70433;SDS011;57876;47.792;12.960;2024-03-02T05:00:03;3.60;;;0.90;;
70433;SDS011;57876;47.792;12.960;2024-03-02T05:02:31;3.97;;;1.00;;
70433;SDS011;57876;47.792;12.960;2024-03-02T05:04:55;3.90;;;1.00;;
70433;SDS011;57876;47.792;12.960;2024-03-02T05:07:19;3.40;;;0.80;;
70433;SDS011;57876;47.792;12.960;2024-03-02T05:09:44;3.17;;;0.70;;
70433;SDS011;57876;47.792;12.960;2024-03-02T05:12:08;3.93;;;1.00;;
70433;SDS011;57876;47.792;12.960;2024-03-02T05:14:47;4.18;;;1.00;;
70433;SDS011;57876;47.792;12.960;2024-03-02T05:17:11;3.70;;;0.83;;
70433;SDS011;57876;47.792;12.960;2024-03-02T05:19:36;3.70;;;0.90;;
70433;SDS011;57876;47.792;12.960;2024-03-02T05:22:00;3.57;;;0.80;;
70433;SDS011;57876;47.792;12.960;2024-03-02T05:24:24;3.60;;;0.80;;
70433;SDS011;57876;47.792;12.960;2024-03-02T05:26:51;3.80;;;1.00;;
70433;SDS011;57876;47.792;12.960;2024-03-02T05:29:15;3.13;;;0.70;;
70433;SDS011;57876;47.792;12.960;2024-03-02T05:31:39;3.50;;;0.70;;
70433;SDS011;57876;47.792;12.960;2024-03-02T05:34:04;4.00;;;1.00;;
70433;SDS011;57876;47.792;12.960;2024-03-02T05:36:29;3.50;;;0.80;;
70433;SDS011;57876;47.792;12.960;2024-03-02T05:38:53;3.23;;;0.70;;
70433;SDS011;57876;47.792;12.960;2024-03-02T05:41:18;3.90;;;0.80;;
70433;SDS011;57876;47.792;12.960;2024-03-02T05:43:42;4.77;;;0.90;;
70433;SDS011;57876;47.792;12.960;2024-03-02T05:46:06;3.80;;;0.80;;
70433;SDS011;57876;47.792;12.960;2024-03-02T05:48:31;3.63;;;0.70;;
70433;SDS011;57876;47.792;12.960;2024-03-02T05:50:55;4.00;;;0.87;;
70433;SDS011;57876;47.792;12.960;2024-03-02T05:53:20;3.58;;;0.70;;
70433;SDS011;57876;47.792;12.960;2024-03-02T05:55:45;3.30;;;0.70;;
70433;SDS011;57876;47.792;12.960;2024-03-02T05:58:09;3.47;;;0.80;;
70433;SDS011;57876;47.792;12.960;2024-03-02T06:00:51;3.58;;;0.70;;
70433;SDS011;57876;47.792;12.960;2024-03-02T06:03:16;3.70;;;0.90;;
70433;SDS011;57876;47.792;12.960;2024-03-02T06:05:40;3.03;;;0.70;;
70433;SDS011;57876;47.792;12.960;2024-03-02T06:08:05;3.50;;;0.80;;
70433;SDS011;57876;47.792;12.960;2024-03-02T06:10:29;3.73;;;0.87;;
70433;SDS011;57876;47.792;12.960;2024-03-02T06:12:53;3.60;;;0.80;;
70433;SDS011;57876;47.792;12.960;2024-03-02T06:15:18;3.43;;;0.70;;
70433;SDS011;57876;47.792;12.960;2024-03-02T06:17:42;3.57;;;0.77;;
70433;SDS011;57876;47.792;12.960;2024-03-02T06:20:07;3.37;;;0.73;;
70433;SDS011;57876;47.792;12.960;2024-03-02T06:22:32;3.45;;;0.75;;
70433;SDS011;57876;47.792;12.960;2024-03-02T06:24:56;3.93;;;0.80;;
70433;SDS011;57876;47.792;12.960;2024-03-02T06:27:21;3.50;;;0.80;;
70433;SDS011;57876;47.792;12.960;2024-03-02T06:29:45;3.63;;;0.70;;
70433;SDS011;57876;47.792;12.960;2024-03-02T06:32:10;3.33;;;0.70;;
70433;SDS011;57876;47.792;12.960;2024-03-02T06:34:34;3.30;;;0.80;;
70433;SDS011;57876;47.792;12.960;2024-03-02T06:36:59;3.60;;;0.70;;
70433;SDS011;57876;47.792;12.960;2024-03-02T06:39:23;3.80;;;0.80;;
70433;SDS011;57876;47.792;12.960;2024-03-02T06:41:48;3.20;;;0.63;;
70433;SDS011;57876;47.792;12.960;2024-03-02T06:44:12;3.80;;;0.80;;
70433;SDS011;57876;47.792;12.960;2024-03-02T06:46:37;3.20;;;0.65;;
70433;SDS011;57876;47.792;12.960;2024-03-02T06:49:02;3.37;;;0.70;;
70433;SDS011;57876;47.792;12.960;2024-03-02T06:51:28;3.55;;;0.75;;
70433;SDS011;57876;47.792;12.960;2024-03-02T06:53:52;3.30;;;0.60;;
70433;SDS011;57876;47.792;12.960;2024-03-02T06:56:16;3.30;;;0.70;;
70433;SDS011;57876;47.792;12.960;2024-03-02T06:58:41;3.60;;;0.97;;
70433;SDS011;57876;47.792;12.960;2024-03-02T07:01:06;3.63;;;0.70;;
70433;SDS011;57876;47.792;12.960;2024-03-02T07:03:31;3.80;;;0.80;;
70433;SDS011;57876;47.792;12.960;2024-03-02T07:05:56;3.58;;;0.70;;
70433;SDS011;57876;47.792;12.960;2024-03-02T07:08:21;3.25;;;0.75;;
70433;SDS011;57876;47.792;12.960;2024-03-02T07:10:45;3.63;;;0.70;;
70433;SDS011;57876;47.792;12.960;2024-03-02T07:13:11;3.10;;;0.60;;
70433;SDS011;57876;47.792;12.960;2024-03-02T07:15:35;3.47;;;0.90;;
70433;SDS011;57876;47.792;12.960;2024-03-02T07:18:20;3.63;;;0.75;;
70433;SDS011;57876;47.792;12.960;2024-03-02T07:20:44;3.30;;;0.70;;
70433;SDS011;57876;47.792;12.960;2024-03-02T07:23:08;3.37;;;0.70;;
70433;SDS011;57876;47.792;12.960;2024-03-02T07:25:33;2.97;;;0.67;;
70433;SDS011;57876;47.792;12.960;2024-03-02T07:27:58;3.70;;;0.80;;
70433;SDS011;57876;47.792;12.960;2024-03-02T07:30:24;3.67;;;0.70;;
70433;SDS011;57876;47.792;12.960;2024-03-02T07:32:49;3.77;;;0.73;;
70433;SDS011;57876;47.792;12.960;2024-03-02T07:35:14;3.67;;;0.80;;
70433;SDS011;57876;47.792;12.960;2024-03-02T07:37:39;3.50;;;0.70;;
70433;SDS011;57876;47.792;12.960;2024-03-02T07:40:05;3.23;;;0.67;;
70433;SDS011;57876;47.792;12.960;2024-03-02T07:42:33;3.28;;;0.60;;
70433;SDS011;57876;47.792;12.960;2024-03-02T07:44:57;3.63;;;0.80;;
70433;SDS011;57876;47.792;12.960;2024-03-02T07:47:22;2.80;;;0.60;;
70433;SDS011;57876;47.792;12.960;2024-03-02T07:49:46;3.10;;;0.67;;
70433;SDS011;57876;47.792;12.960;2024-03-02T07:52:11;3.63;;;0.70;;
70433;SDS011;57876;47.792;12.960;2024-03-02T07:54:35;3.38;;;0.70;;
70433;SDS011;57876;47.792;12.960;2024-03-02T07:57:00;3.40;;;0.70;;
70433;SDS011;57876;47.792;12.960;2024-03-02T07:59:26;3.42;;;0.70;;
70433;SDS011;57876;47.792;12.960;2024-03-02T08:01:50;3.40;;;0.70;;
70433;SDS011;57876;47.792;12.960;2024-03-02T08:04:15;3.22;;;0.77;;
70433;SDS011;57876;47.792;12.960;2024-03-02T08:06:39;3.33;;;0.67;;
70433;SDS011;57876;47.792;12.960;2024-03-02T08:09:04;4.00;;;0.80;;
70433;SDS011;57876;47.792;12.960;2024-03-02T08:11:33;2.75;;;0.52;;
70433;SDS011;57876;47.792;12.960;2024-03-02T08:13:57;3.57;;;0.70;;
70433;SDS011;57876;47.792;12.960;2024-03-02T08:16:22;3.38;;;0.70;;
70433;SDS011;57876;47.792;12.960;2024-03-02T08:18:47;3.47;;;0.70;;
70433;SDS011;57876;47.792;12.960;2024-03-02T08:21:12;3.60;;;0.80;;
70433;SDS011;57876;47.792;12.960;2024-03-02T08:23:38;2.97;;;0.60;;
70433;SDS011;57876;47.792;12.960;2024-03-02T08:26:02;3.35;;;0.60;;
70433;SDS011;57876;47.792;12.960;2024-03-02T08:28:27;3.13;;;0.60;;
70433;SDS011;57876;47.792;12.960;2024-03-02T08:30:51;2.95;;;0.60;;
70433;SDS011;57876;47.792;12.960;2024-03-02T08:33:16;3.80;;;0.70;;
70433;SDS011;57876;47.792;12.960;2024-03-02T08:35:41;3.50;;;0.70;;
70433;SDS011;57876;47.792;12.960;2024-03-02T08:38:06;2.80;;;0.68;;
70433;SDS011;57876;47.792;12.960;2024-03-02T08:40:30;3.10;;;0.60;;
70433;SDS011;57876;47.792;12.960;2024-03-02T08:42:55;2.92;;;0.60;;
70433;SDS011;57876;47.792;12.960;2024-03-02T08:45:19;3.47;;;0.60;;
70433;SDS011;57876;47.792;12.960;2024-03-02T08:47:44;3.15;;;0.63;;
70433;SDS011;57876;47.792;12.960;2024-03-02T08:50:08;2.90;;;0.50;;
70433;SDS011;57876;47.792;12.960;2024-03-02T08:52:33;3.37;;;0.73;;
70433;SDS011;57876;47.792;12.960;2024-03-02T08:54:57;3.27;;;0.60;;
70433;SDS011;57876;47.792;12.960;2024-03-02T08:57:22;3.80;;;0.80;;
70433;SDS011;57876;47.792;12.960;2024-03-02T08:59:46;3.15;;;0.60;;
70433;SDS011;57876;47.792;12.960;2024-03-02T09:02:11;3.13;;;0.70;;
70433;SDS011;57876;47.792;12.960;2024-03-02T09:04:35;2.73;;;0.50;;
70433;SDS011;57876;47.792;12.960;2024-03-02T09:06:59;3.40;;;0.70;;
70433;SDS011;57876;47.792;12.960;2024-03-02T09:09:24;3.03;;;0.60;;
70433;SDS011;57876;47.792;12.960;2024-03-02T09:11:48;3.40;;;0.70;;
70433;SDS011;57876;47.792;12.960;2024-03-02T09:14:13;3.27;;;0.60;;
70433;SDS011;57876;47.792;12.960;2024-03-02T09:16:38;3.47;;;0.63;;
70433;SDS011;57876;47.792;12.960;2024-03-02T09:19:03;3.50;;;0.63;;
70433;SDS011;57876;47.792;12.960;2024-03-02T09:21:27;2.60;;;0.50;;
70433;SDS011;57876;47.792;12.960;2024-03-02T09:23:54;3.53;;;0.85;;
70433;SDS011;57876;47.792;12.960;2024-03-02T09:26:18;3.10;;;0.70;;
70433;SDS011;57876;47.792;12.960;2024-03-02T09:28:44;2.95;;;0.57;;
70433;SDS011;57876;47.792;12.960;2024-03-02T09:31:09;3.03;;;0.60;;
70433;SDS011;57876;47.792;12.960;2024-03-02T09:33:33;3.50;;;0.70;;
70433;SDS011;57876;47.792;12.960;2024-03-02T09:35:58;2.60;;;0.50;;
70433;SDS011;57876;47.792;12.960;2024-03-02T09:38:22;3.07;;;0.67;;
70433;SDS011;57876;47.792;12.960;2024-03-02T09:40:46;3.30;;;0.70;;
70433;SDS011;57876;47.792;12.960;2024-03-02T09:43:11;2.97;;;0.70;;
70433;SDS011;57876;47.792;12.960;2024-03-02T09:45:37;2.95;;;0.60;;
70433;SDS011;57876;47.792;12.960;2024-03-02T09:48:02;2.92;;;0.45;;
70433;SDS011;57876;47.792;12.960;2024-03-02T09:50:26;2.90;;;0.50;;
70433;SDS011;57876;47.792;12.960;2024-03-02T09:52:51;3.37;;;0.70;;
70433;SDS011;57876;47.792;12.960;2024-03-02T09:55:16;2.75;;;0.50;;
70433;SDS011;57876;47.792;12.960;2024-03-02T09:57:42;3.10;;;0.70;;
70433;SDS011;57876;47.792;12.960;2024-03-02T10:00:07;2.93;;;0.60;;
70433;SDS011;57876;47.792;12.960;2024-03-02T10:02:32;3.38;;;0.70;;
70433;SDS011;57876;47.792;12.960;2024-03-02T10:04:57;2.97;;;0.53;;
70433;SDS011;57876;47.792;12.960;2024-03-02T10:07:21;3.50;;;0.70;;
70433;SDS011;57876;47.792;12.960;2024-03-02T10:09:46;3.30;;;0.70;;
70433;SDS011;57876;47.792;12.960;2024-03-02T10:12:14;2.70;;;0.60;;
70433;SDS011;57876;47.792;12.960;2024-03-02T10:14:39;3.20;;;0.60;;
70433;SDS011;57876;47.792;12.960;2024-03-02T10:17:11;3.10;;;0.60;;
70433;SDS011;57876;47.792;12.960;2024-03-02T10:19:37;3.20;;;0.70;;
70433;SDS011;57876;47.792;12.960;2024-03-02T10:22:11;3.38;;;0.60;;
70433;SDS011;57876;47.792;12.960;2024-03-02T10:24:37;3.37;;;0.60;;
70433;SDS011;57876;47.792;12.960;2024-03-02T10:27:09;2.55;;;0.52;;
70433;SDS011;57876;47.792;12.960;2024-03-02T10:29:38;2.55;;;0.57;;
70433;SDS011;57876;47.792;12.960;2024-03-02T10:32:04;2.83;;;0.50;;
70433;SDS011;57876;47.792;12.960;2024-03-02T10:34:30;2.90;;;0.50;;
70433;SDS011;57876;47.792;12.960;2024-03-02T10:36:55;3.00;;;0.60;;
70433;SDS011;57876;47.792;12.960;2024-03-02T10:39:19;2.80;;;0.60;;
70433;SDS011;57876;47.792;12.960;2024-03-02T10:41:45;2.95;;;0.60;;
70433;SDS011;57876;47.792;12.960;2024-03-02T10:44:13;3.33;;;0.60;;
70433;SDS011;57876;47.792;12.960;2024-03-02T10:46:38;3.00;;;0.60;;
70433;SDS011;57876;47.792;12.960;2024-03-02T10:49:04;2.57;;;0.57;;
70433;SDS011;57876;47.792;12.960;2024-03-02T10:51:30;2.83;;;0.60;;
70433;SDS011;57876;47.792;12.960;2024-03-02T10:53:56;2.78;;;0.50;;
70433;SDS011;57876;47.792;12.960;2024-03-02T10:56:31;2.67;;;0.57;;
70433;SDS011;57876;47.792;12.960;2024-03-02T11:01:48;3.00;;;0.60;;
70433;SDS011;57876;47.792;12.960;2024-03-02T11:04:18;2.80;;;0.60;;
70433;SDS011;57876;47.792;12.960;2024-03-02T11:06:44;2.47;;;0.50;;
70433;SDS011;57876;47.792;12.960;2024-03-02T11:09:16;3.30;;;0.70;;
70433;SDS011;57876;47.792;12.960;2024-03-02T11:11:44;3.10;;;0.55;;
70433;SDS011;57876;47.792;12.960;2024-03-02T11:14:16;3.17;;;0.55;;
70433;SDS011;57876;47.792;12.960;2024-03-02T11:16:43;2.45;;;0.50;;
70433;SDS011;57876;47.792;12.960;2024-03-02T11:19:13;2.97;;;0.60;;
70433;SDS011;57876;47.792;12.960;2024-03-02T11:21:39;3.03;;;0.60;;
70433;SDS011;57876;47.792;12.960;2024-03-02T11:26:56;3.08;;;0.50;;
70433;SDS011;57876;47.792;12.960;2024-03-02T11:32:05;3.15;;;0.60;;
70433;SDS011;57876;47.792;12.960;2024-03-02T11:34:33;3.17;;;0.50;;
70433;SDS011;57876;47.792;12.960;2024-03-02T11:36:59;2.85;;;0.60;;
70433;SDS011;57876;47.792;12.960;2024-03-02T11:39:25;2.90;;;0.60;;
70433;SDS011;57876;47.792;12.960;2024-03-02T11:41:51;3.30;;;0.60;;
70433;SDS011;57876;47.792;12.960;2024-03-02T11:44:15;2.70;;;0.60;;
70433;SDS011;57876;47.792;12.960;2024-03-02T11:46:40;3.40;;;0.70;;
70433;SDS011;57876;47.792;12.960;2024-03-02T11:49:04;3.17;;;0.60;;
70433;SDS011;57876;47.792;12.960;2024-03-02T11:51:29;2.50;;;0.50;;
70433;SDS011;57876;47.792;12.960;2024-03-02T11:53:54;2.73;;;0.50;;
70433;SDS011;57876;47.792;12.960;2024-03-02T11:56:19;3.28;;;0.68;;
70433;SDS011;57876;47.792;12.960;2024-03-02T11:58:45;2.72;;;0.50;;
70433;SDS011;57876;47.792;12.960;2024-03-02T12:01:11;2.35;;;0.50;;
70433;SDS011;57876;47.792;12.960;2024-03-02T12:03:37;2.40;;;0.50;;
70433;SDS011;57876;47.792;12.960;2024-03-02T12:06:02;3.27;;;0.60;;
70433;SDS011;57876;47.792;12.960;2024-03-02T12:08:26;2.65;;;0.50;;
70433;SDS011;57876;47.792;12.960;2024-03-02T12:10:58;2.37;;;0.47;;
70433;SDS011;57876;47.792;12.960;2024-03-02T12:13:24;2.85;;;0.60;;
70433;SDS011;57876;47.792;12.960;2024-03-02T12:15:50;2.87;;;0.50;;
70433;SDS011;57876;47.792;12.960;2024-03-02T12:18:19;1.85;;;0.40;;
70433;SDS011;57876;47.792;12.960;2024-03-02T12:20:43;3.07;;;0.50;;
70433;SDS011;57876;47.792;12.960;2024-03-02T12:23:07;2.60;;;0.60;;
70433;SDS011;57876;47.792;12.960;2024-03-02T12:25:32;2.50;;;0.50;;
70433;SDS011;57876;47.792;12.960;2024-03-02T12:27:57;3.10;;;0.60;;
70433;SDS011;57876;47.792;12.960;2024-03-02T12:30:24;2.97;;;0.50;;
70433;SDS011;57876;47.792;12.960;2024-03-02T12:32:51;2.97;;;0.50;;
70433;SDS011;57876;47.792;12.960;2024-03-02T12:35:15;2.80;;;0.50;;
70433;SDS011;57876;47.792;12.960;2024-03-02T12:37:46;2.60;;;0.52;;
70433;SDS011;57876;47.792;12.960;2024-03-02T12:40:12;2.73;;;0.60;;
70433;SDS011;57876;47.792;12.960;2024-03-02T12:42:38;2.97;;;0.50;;
70433;SDS011;57876;47.792;12.960;2024-03-02T12:45:03;2.58;;;0.50;;
70433;SDS011;57876;47.792;12.960;2024-03-02T12:47:28;2.85;;;0.52;;
70433;SDS011;57876;47.792;12.960;2024-03-02T12:49:53;2.57;;;0.50;;
70433;SDS011;57876;47.792;12.960;2024-03-02T12:52:18;2.92;;;0.57;;
70433;SDS011;57876;47.792;12.960;2024-03-02T12:54:42;2.83;;;0.50;;
70433;SDS011;57876;47.792;12.960;2024-03-02T12:57:07;2.80;;;0.50;;
70433;SDS011;57876;47.792;12.960;2024-03-02T12:59:32;2.00;;;0.40;;
70433;SDS011;57876;47.792;12.960;2024-03-02T13:01:57;2.45;;;0.40;;
70433;SDS011;57876;47.792;12.960;2024-03-02T13:04:22;3.30;;;0.60;;
70433;SDS011;57876;47.792;12.960;2024-03-02T13:06:49;2.20;;;0.40;;
70433;SDS011;57876;47.792;12.960;2024-03-02T13:09:13;2.60;;;0.50;;
70433;SDS011;57876;47.792;12.960;2024-03-02T13:11:39;3.00;;;0.50;;
70433;SDS011;57876;47.792;12.960;2024-03-02T13:14:03;3.13;;;0.50;;
70433;SDS011;57876;47.792;12.960;2024-03-02T13:16:29;2.50;;;0.60;;
70433;SDS011;57876;47.792;12.960;2024-03-02T13:18:53;2.63;;;0.60;;
70433;SDS011;57876;47.792;12.960;2024-03-02T13:21:19;2.67;;;0.50;;
70433;SDS011;57876;47.792;12.960;2024-03-02T13:23:44;3.00;;;0.60;;
70433;SDS011;57876;47.792;12.960;2024-03-02T13:26:08;2.55;;;0.52;;
70433;SDS011;57876;47.792;12.960;2024-03-02T13:28:35;3.17;;;0.60;;
70433;SDS011;57876;47.792;12.960;2024-03-02T13:30:59;2.65;;;0.60;;
70433;SDS011;57876;47.792;12.960;2024-03-02T13:33:23;2.03;;;0.40;;
70433;SDS011;57876;47.792;12.960;2024-03-02T13:35:49;3.37;;;0.60;;
70433;SDS011;57876;47.792;12.960;2024-03-02T13:38:14;2.85;;;0.50;;
70433;SDS011;57876;47.792;12.960;2024-03-02T13:40:40;2.70;;;0.50;;
70433;SDS011;57876;47.792;12.960;2024-03-02T13:43:04;2.92;;;0.50;;
70433;SDS011;57876;47.792;12.960;2024-03-02T13:45:29;3.10;;;0.53;;
70433;SDS011;57876;47.792;12.960;2024-03-02T13:47:53;1.80;;;0.40;;
70433;SDS011;57876;47.792;12.960;2024-03-02T13:50:19;2.63;;;0.50;;
70433;SDS011;57876;47.792;12.960;2024-03-02T13:52:44;2.60;;;0.50;;
70433;SDS011;57876;47.792;12.960;2024-03-02T13:55:09;2.60;;;0.50;;
70433;SDS011;57876;47.792;12.960;2024-03-02T13:57:34;2.45;;;0.45;;
70433;SDS011;57876;47.792;12.960;2024-03-02T14:00:00;2.97;;;0.60;;
70433;SDS011;57876;47.792;12.960;2024-03-02T14:02:27;3.25;;;0.50;;
70433;SDS011;57876;47.792;12.960;2024-03-02T14:04:52;2.35;;;0.43;;
70433;SDS011;57876;47.792;12.960;2024-03-02T14:07:16;1.90;;;0.40;;
70433;SDS011;57876;47.792;12.960;2024-03-02T14:09:41;2.87;;;0.50;;
70433;SDS011;57876;47.792;12.960;2024-03-02T14:12:05;2.88;;;0.50;;
70433;SDS011;57876;47.792;12.960;2024-03-02T14:14:30;2.50;;;0.50;;
70433;SDS011;57876;47.792;12.960;2024-03-02T14:16:55;2.73;;;0.57;;
70433;SDS011;57876;47.792;12.960;2024-03-02T14:19:20;2.37;;;0.50;;
70433;SDS011;57876;47.792;12.960;2024-03-02T14:21:45;2.80;;;0.50;;
70433;SDS011;57876;47.792;12.960;2024-03-02T14:24:11;2.88;;;0.55;;
70433;SDS011;57876;47.792;12.960;2024-03-02T14:26:35;2.73;;;0.50;;
70433;SDS011;57876;47.792;12.960;2024-03-02T14:29:00;3.13;;;0.60;;
70433;SDS011;57876;47.792;12.960;2024-03-02T14:31:28;2.60;;;0.47;;
70433;SDS011;57876;47.792;12.960;2024-03-02T14:33:52;2.30;;;0.43;;
70433;SDS011;57876;47.792;12.960;2024-03-02T14:36:17;2.70;;;0.50;;
70433;SDS011;57876;47.792;12.960;2024-03-02T14:38:41;3.43;;;0.60;;
70433;SDS011;57876;47.792;12.960;2024-03-02T14:41:06;2.93;;;0.50;;